Terminal Aerodrome Forecast
Issued by NWS Omaha/Valley, NE

Home | Current Version | Previous Version | Graphics & Text | Print | Product List | Glossary On
Versions: 1 2 3 4 5 6 7 8 9 10 11 12 13 14 15 16 17 18
000
FTUS43 KOAX 261120
TAFOFK
TAF
KOFK 261120Z 2612/2712 13006KT P6SM SCT250 PROB30 2703/2705 4SM
      -TSRA OVC025CB
     FM270500 14004KT P6SM -SHRA VCTS OVC040CB
     FM270800 16004KT P6SM BKN008=

USA.gov is the U.S. government's official web portal to all federal, state and local government web resources and services.